Time,TemperatureF,DewpointF,PressureIn,WindDirection,WindDirectionDegrees,WindSpeedMPH,WindSpeedGustMPH,Humidity,HourlyPrecipIn,Conditions,Clouds,dailyrainin,SoftwareType,DateUTC
2013-02-19 00:01:00,70.5,64.0,30.15,NE,45,7.4,7.4,80,0.00,CLR,,0.00,WeatherDisplay:10.37,2013-02-19 10:01:00,
2013-02-19 00:07:00,70.3,63.8,30.15,NE,45,4.6,5.8,80,0.00,CLR,,0.00,WeatherDisplay:10.37,2013-02-19 10:07:00,
2013-02-19 00:12:00,70.3,63.8,30.15,NE,45,8.0,10.4,80,0.00,CLR,,0.00,WeatherDisplay:10.37,2013-02-19 10:12:00,
2013-02-19 00:17:00,70.5,64.0,30.15,WSW,248,9.5,11.9,80,0.00,CLR,,0.00,WeatherDisplay:10.37,2013-02-19 10:17:00,
2013-02-19 00:22:00,70.5,64.0,30.14,East,90,8.8,12.7,80,0.00,CLR,,0.00,WeatherDisplay:10.37,2013-02-19 10:22:00,
2013-02-19 00:27:00,70.5,64.0,30.14,NE,45,5.6,6.3,80,0.00,CLR,,0.00,WeatherDisplay:10.37,2013-02-19 10:27:00,
2013-02-19 00:32:00,69.6,63.9,30.14,East,90,8.3,13.8,82,0.00,CLR,,0.00,WeatherDisplay:10.37,2013-02-19 10:32:00,
2013-02-19 00:37:00,68.7,63.7,30.15,NE,45,7.3,9.2,84,0.00,CLR,,0.00,WeatherDisplay:10.37,2013-02-19 10:37:00,
2013-02-19 00:42:00,68.5,63.8,30.15,West,270,4.3,5.3,85,0.00,CLR,,0.00,WeatherDisplay:10.37,2013-02-19 10:42:00,
2013-02-19 00:47:00,68.2,63.5,30.14,West,270,4.0,4.6,85,0.00,CLR,,0.00,WeatherDisplay:10.37,2013-02-19 10:47:00,
2013-02-19 00:52:00,67.6,63.3,30.14,ENE,68,8.9,9.2,86,0.00,CLR,,0.02,WeatherDisplay:10.37,2013-02-19 10:52:00,
2013-02-19 00:57:00,67.6,63.9,30.14,ENE,68,6.6,8.1,88,0.05,RA,,0.06,WeatherDisplay:10.37,2013-02-19 10:57:00,
2013-02-19 01:02:00,67.5,63.8,30.15,WNW,292,2.0,2.7,88,0.06,RA,,0.06,WeatherDisplay:10.37,2013-02-19 11:02:00,
2013-02-19 01:07:00,67.5,64.1,30.15,WSW,248,3.3,3.5,89,0.06,RA,,0.06,WeatherDisplay:10.37,2013-02-19 11:07:00,
2013-02-19 01:12:00,67.5,64.5,30.13,ENE,68,2.2,3.5,90,0.06,CLR,,0.06,WeatherDisplay:10.37,2013-02-19 11:12:00,
2013-02-19 01:17:00,67.6,64.6,30.13,WNW,292,2.8,3.5,90,0.06,CLR,,0.06,WeatherDisplay:10.37,2013-02-19 11:17:00,
2013-02-19 01:22:00,67.8,64.8,30.13,West,270,4.5,5.8,90,0.06,CLR,,0.06,WeatherDisplay:10.37,2013-02-19 11:22:00,
2013-02-19 01:28:00,68.2,65.5,30.13,NNW,338,5.8,8.3,91,0.06,CLR,,0.06,WeatherDisplay:10.37,2013-02-19 11:28:00,
2013-02-19 01:33:00,68.2,65.2,30.13,NE,45,4.2,5.8,90,0.06,CLR,,0.06,WeatherDisplay:10.37,2013-02-19 11:33:00,
2013-02-19 01:38:00,68.2,65.2,30.12,NNW,338,2.6,3.5,90,0.06,CLR,,0.06,WeatherDisplay:10.37,2013-02-19 11:38:00,
2013-02-19 01:43:00,68.4,65.0,30.12,NE,45,9.5,11.5,89,0.06,CLR,,0.06,WeatherDisplay:10.37,2013-02-19 11:43:00,
2013-02-19 01:48:00,68.7,65.0,30.13,NNW,338,4.2,4.6,88,0.06,CLR,,0.06,WeatherDisplay:10.37,2013-02-19 11:48:00,
2013-02-19 01:53:00,68.9,65.2,30.13,East,90,7.7,9.2,88,0.03,CLR,,0.06,WeatherDisplay:10.37,2013-02-19 11:53:00,
2013-02-19 01:58:00,69.1,65.4,30.13,WNW,292,3.4,4.6,88,0.00,CLR,,0.06,WeatherDisplay:10.37,2013-02-19 11:58:00,
2013-02-19 02:03:00,67.1,63.4,30.12,East,90,9.3,20.7,88,0.02,RA,,0.08,WeatherDisplay:10.37,2013-02-19 12:03:00,
2013-02-19 02:08:00,67.1,63.4,30.12,ESE,112,4.0,8.3,88,0.02,RA,,0.08,WeatherDisplay:10.37,2013-02-19 12:08:00,
2013-02-19 02:13:00,66.6,63.3,30.14,NE,45,4.6,6.9,89,0.03,RA,,0.09,WeatherDisplay:10.37,2013-02-19 12:13:00,
2013-02-19 02:18:00,66.6,63.3,30.14,NNW,338,3.1,3.5,89,0.04,RA,,0.10,WeatherDisplay:10.37,2013-02-19 12:18:00,
2013-02-19 02:23:00,67.6,64.6,30.13,NW,315,3.1,4.6,90,0.04,RA,,0.10,WeatherDisplay:10.37,2013-02-19 12:23:00,
2013-02-19 02:28:00,66.7,63.7,30.13,NNW,338,2.5,3.5,90,0.04,,,0.10,WeatherDisplay:10.37,2013-02-19 12:28:00,
2013-02-19 02:33:00,66.7,64.0,30.13,WNW,292,4.5,5.8,91,0.04,CLR,,0.10,WeatherDisplay:10.37,2013-02-19 12:33:00,
2013-02-19 02:38:00,67.3,64.6,30.12,West,270,3.9,6.9,91,0.04,CLR,,0.10,WeatherDisplay:10.37,2013-02-19 12:38:00,
2013-02-19 02:43:00,67.8,65.1,30.12,ESE,112,7.2,12.7,91,0.04,CLR,,0.10,WeatherDisplay:10.37,2013-02-19 12:43:00,
2013-02-19 02:49:00,68.2,65.5,30.12,ESE,112,5.0,9.2,91,0.04,CLR,,0.10,WeatherDisplay:10.37,2013-02-19 12:49:00,
2013-02-19 02:54:00,68.2,65.5,30.12,ENE,68,8.6,9.2,91,0.04,CLR,,0.10,WeatherDisplay:10.37,2013-02-19 12:54:00,
2013-02-19 02:59:00,68.7,65.6,30.12,NE,45,8.7,10.4,90,0.04,CLR,,0.10,WeatherDisplay:10.37,2013-02-19 12:59:00,
2013-02-19 03:04:00,68.4,64.7,30.12,ESE,112,7.2,9.4,88,0.02,CLR,,0.10,WeatherDisplay:10.37,2013-02-19 13:04:00,
2013-02-19 03:09:00,68.4,64.7,30.12,NE,45,8.3,9.2,88,0.01,CLR,,0.10,WeatherDisplay:10.37,2013-02-19 13:09:00,
2013-02-19 03:14:00,68.5,64.8,30.12,ESE,112,6.8,11.5,88,0.01,CLR,,0.10,WeatherDisplay:10.37,2013-02-19 13:14:00,
2013-02-19 03:19:00,68.5,64.5,30.12,East,90,8.5,10.4,87,0.00,CLR,,0.10,WeatherDisplay:10.37,2013-02-19 13:19:00,
2013-02-19 03:24:00,68.5,64.1,30.12,East,90,13.0,15.0,86,0.00,CLR,,0.10,WeatherDisplay:10.37,2013-02-19 13:24:00,
2013-02-19 03:29:00,68.9,63.9,30.12,ENE,68,6.4,13.0,84,0.00,CLR,,0.10,WeatherDisplay:10.37,2013-02-19 13:29:00,
2013-02-19 03:34:00,69.1,63.7,30.12,East,90,7.1,8.3,83,0.00,CLR,,0.10,WeatherDisplay:10.37,2013-02-19 13:34:00,
2013-02-19 03:39:00,68.9,63.5,30.12,ENE,68,6.0,9.2,83,0.00,CLR,,0.10,WeatherDisplay:10.37,2013-02-19 13:39:00,
2013-02-19 03:44:00,69.1,63.7,30.12,NNW,338,4.7,10.4,83,0.00,CLR,,0.10,WeatherDisplay:10.37,2013-02-19 13:44:00,
2013-02-19 03:49:00,69.1,63.4,30.12,East,90,7.0,15.0,82,0.00,CLR,,0.10,WeatherDisplay:10.37,2013-02-19 13:49:00,
2013-02-19 03:54:00,69.1,63.0,30.12,WNW,292,9.2,10.4,81,0.00,CLR,,0.10,WeatherDisplay:10.37,2013-02-19 13:54:00,
2013-02-19 03:59:00,69.1,62.7,30.11,NE,45,5.3,7.3,80,0.00,CLR,,0.10,WeatherDisplay:10.37,2013-02-19 13:59:00,
2013-02-19 04:04:00,69.1,61.9,30.11,ESE,112,6.8,8.1,78,0.00,CLR,,0.10,WeatherDisplay:10.37,2013-02-19 14:04:00,
2013-02-19 04:10:00,69.4,62.2,30.11,ENE,71,7.0,12.0,78,0.00,CLR,,0.10,WeatherDisplay:10.37,2013-02-19 14:10:00,
2013-02-19 04:15:00,69.4,62.6,30.11,ENE,67,7.0,12.0,79,0.00,CLR,,0.10,WeatherDisplay:10.37,2013-02-19 14:15:00,
2013-02-19 04:20:00,69.6,62.4,30.11,NE,45,5.0,6.9,78,0.00,CLR,,0.10,WeatherDisplay:10.37,2013-02-19 14:20:00,
2013-02-19 04:25:00,69.6,62.8,30.11,ENE,68,6.8,6.9,79,0.00,CLR,,0.10,WeatherDisplay:10.37,2013-02-19 14:25:00,
2013-02-19 04:30:00,69.4,62.6,30.11,SSE,158,4.0,5.8,79,0.00,CLR,,0.10,WeatherDisplay:10.37,2013-02-19 14:30:00,
2013-02-19 04:35:00,69.3,61.8,30.11,East,90,9.4,15.0,77,0.00,CLR,,0.10,WeatherDisplay:10.37,2013-02-19 14:35:00,
2013-02-19 04:40:00,69.8,61.5,30.11,NE,45,7.4,9.4,75,0.00,CLR,,0.10,WeatherDisplay:10.37,2013-02-19 14:40:00,
2013-02-19 04:45:00,70.2,61.5,30.11,SE,135,10.0,13.8,74,0.00,CLR,,0.10,WeatherDisplay:10.37,2013-02-19 14:45:00,
2013-02-19 04:50:00,70.3,60.8,30.11,ESE,112,6.3,12.4,72,0.00,CLR,,0.10,WeatherDisplay:10.37,2013-02-19 14:50:00,
2013-02-19 04:55:00,70.3,60.8,30.11,ESE,112,12.2,13.8,72,0.00,CLR,,0.10,WeatherDisplay:10.37,2013-02-19 14:55:00,
2013-02-19 05:00:00,70.3,60.8,30.11,NNE,22,4.3,8.1,72,0.00,CLR,,0.10,WeatherDisplay:10.37,2013-02-19 15:00:00,
2013-02-19 05:05:00,70.3,60.8,30.11,SE,135,4.6,5.8,72,0.00,CLR,,0.10,WeatherDisplay:10.37,2013-02-19 15:05:00,
2013-02-19 05:10:00,70.2,60.4,30.11,East,90,9.5,10.4,71,0.00,CLR,,0.10,WeatherDisplay:10.37,2013-02-19 15:10:00,
2013-02-19 05:15:00,70.5,60.6,30.11,NE,45,6.2,8.3,71,0.00,CLR,,0.10,WeatherDisplay:10.37,2013-02-19 15:15:00,
2013-02-19 05:20:00,70.2,60.4,30.11,ESE,112,13.5,13.8,71,0.00,CLR,,0.10,WeatherDisplay:10.37,2013-02-19 15:20:00,
2013-02-19 05:25:00,70.2,60.4,30.11,NE,45,12.4,13.8,71,0.00,CLR,,0.10,WeatherDisplay:10.37,2013-02-19 15:25:00,
2013-02-19 05:30:00,70.3,60.4,30.11,NW,315,9.9,12.7,71,0.00,CLR,,0.10,WeatherDisplay:10.37,2013-02-19 15:30:00,
2013-02-19 05:36:00,70.2,60.4,30.12,ESE,112,7.4,9.2,71,0.00,CLR,,0.10,WeatherDisplay:10.37,2013-02-19 15:36:00,
2013-02-19 05:41:00,70.2,60.4,30.12,ESE,112,6.8,11.5,71,0.00,CLR,,0.10,WeatherDisplay:10.37,2013-02-19 15:41:00,
2013-02-19 05:46:00,70.2,59.6,30.12,ESE,112,14.4,17.3,69,0.00,CLR,,0.10,WeatherDisplay:10.37,2013-02-19 15:46:00,
2013-02-19 05:51:00,70.2,59.6,30.12,East,90,6.5,9.2,69,0.00,CLR,,0.10,WeatherDisplay:10.37,2013-02-19 15:51:00,
2013-02-19 05:56:00,70.2,59.6,30.12,NE,45,7.2,8.1,69,0.00,CLR,,0.10,WeatherDisplay:10.37,2013-02-19 15:56:00,
2013-02-19 06:01:00,70.0,59.4,30.12,ESE,112,9.6,11.5,69,0.00,CLR,,0.10,WeatherDisplay:10.37,2013-02-19 16:01:00,
2013-02-19 06:06:00,70.2,59.6,30.12,East,90,5.6,6.9,69,0.00,CLR,,0.10,WeatherDisplay:10.37,2013-02-19 16:06:00,
2013-02-19 06:11:00,70.0,59.4,30.12,SE,135,4.2,5.8,69,0.00,CLR,,0.10,WeatherDisplay:10.37,2013-02-19 16:11:00,
2013-02-19 06:16:00,70.0,59.8,30.12,ESE,112,3.9,11.5,70,0.00,CLR,,0.10,WeatherDisplay:10.37,2013-02-19 16:16:00,
2013-02-19 06:21:00,69.8,60.0,30.12,East,90,9.6,12.4,71,0.00,CLR,,0.10,WeatherDisplay:10.37,2013-02-19 16:21:00,
2013-02-19 06:26:00,70.0,60.2,30.13,ENE,68,3.6,7.8,71,0.00,CLR,,0.10,WeatherDisplay:10.37,2013-02-19 16:26:00,
2013-02-19 06:31:00,70.2,59.6,30.13,NE,45,5.3,11.5,69,0.00,CLR,,0.10,WeatherDisplay:10.37,2013-02-19 16:31:00,
2013-02-19 06:36:00,70.2,59.6,30.13,NNW,338,4.3,8.1,69,0.00,CLR,,0.10,WeatherDisplay:10.37,2013-02-19 16:36:00,
2013-02-19 06:41:00,70.3,59.6,30.13,ESE,112,8.1,12.7,69,0.00,CLR,,0.10,WeatherDisplay:10.37,2013-02-19 16:41:00,
2013-02-19 06:47:00,70.2,59.6,30.13,East,90,5.5,6.9,69,0.00,CLR,,0.10,WeatherDisplay:10.37,2013-02-19 16:47:00,
2013-02-19 06:52:00,70.2,59.6,30.13,SSE,158,9.6,12.7,69,0.00,CLR,,0.10,WeatherDisplay:10.37,2013-02-19 16:52:00,
2013-02-19 06:57:00,70.2,59.6,30.13,NNE,22,3.5,4.6,69,0.00,CLR,,0.10,WeatherDisplay:10.37,2013-02-19 16:57:00,
2013-02-19 07:02:00,69.8,59.2,30.13,East,90,5.9,6.9,69,0.00,CLR,,0.10,WeatherDisplay:10.37,2013-02-19 17:02:00,
2013-02-19 07:07:00,70.0,59.4,30.13,ESE,112,5.1,8.1,69,0.00,CLR,,0.10,WeatherDisplay:10.37,2013-02-19 17:07:00,
2013-02-19 07:12:00,70.3,59.6,30.13,NW,315,3.2,5.8,69,0.00,CLR,,0.10,WeatherDisplay:10.37,2013-02-19 17:12:00,
2013-02-19 07:17:00,70.0,59.8,30.13,SSW,202,4.4,6.9,70,0.00,CLR,,0.10,WeatherDisplay:10.37,2013-02-19 17:17:00,
2013-02-19 07:22:00,70.2,60.0,30.13,East,90,4.1,4.7,70,0.00,CLR,,0.10,WeatherDisplay:10.37,2013-02-19 17:22:00,
2013-02-19 07:27:00,70.7,60.8,30.13,NE,45,5.6,6.9,71,0.00,CLR,,0.10,WeatherDisplay:10.37,2013-02-19 17:27:00,
2013-02-19 07:32:00,70.5,61.4,30.13,ENE,68,10.8,15.0,73,0.00,CLR,,0.10,WeatherDisplay:10.37,2013-02-19 17:32:00,
2013-02-19 07:37:00,70.5,61.4,30.14,East,90,4.7,6.8,73,0.00,CLR,,0.10,WeatherDisplay:10.37,2013-02-19 17:37:00,
2013-02-19 07:42:00,70.7,61.2,30.14,West,270,4.0,5.8,72,0.00,CLR,,0.10,WeatherDisplay:10.37,2013-02-19 17:42:00,
2013-02-19 07:47:00,70.5,61.0,30.14,East,90,6.5,7.8,72,0.00,CLR,,0.10,WeatherDisplay:10.37,2013-02-19 17:47:00,
2013-02-19 07:52:00,70.7,61.2,30.14,East,90,3.8,6.3,72,0.00,CLR,,0.10,WeatherDisplay:10.37,2013-02-19 17:52:00,
2013-02-19 07:58:00,70.7,61.2,30.14,ESE,112,5.7,8.1,72,0.00,CLR,,0.10,WeatherDisplay:10.37,2013-02-19 17:58:00,
2013-02-19 08:03:00,70.9,61.8,30.14,West,270,2.9,5.8,73,0.00,CLR,,0.10,WeatherDisplay:10.37,2013-02-19 18:03:00,
2013-02-19 08:08:00,70.7,61.6,30.14,East,90,4.8,5.8,73,0.00,CLR,,0.10,WeatherDisplay:10.37,2013-02-19 18:08:00,
2013-02-19 08:13:00,71.8,61.5,30.14,East,90,10.0,11.5,70,0.00,CLR,,0.10,WeatherDisplay:10.37,2013-02-19 18:13:00,
2013-02-19 08:18:00,72.1,62.6,30.14,ESE,112,9.9,15.0,72,0.00,CLR,,0.10,WeatherDisplay:10.37,2013-02-19 18:18:00,
2013-02-19 08:23:00,72.0,62.9,30.15,West,270,8.6,12.7,73,0.00,CLR,,0.10,WeatherDisplay:10.37,2013-02-19 18:23:00,
2013-02-19 08:28:00,72.0,62.9,30.15,NW,315,8.5,11.5,73,0.00,CLR,,0.10,WeatherDisplay:10.37,2013-02-19 18:28:00,
2013-02-19 08:33:00,72.9,63.3,30.15,East,90,8.4,12.7,72,0.00,CLR,,0.10,WeatherDisplay:10.37,2013-02-19 18:33:00,
2013-02-19 08:38:00,72.9,63.3,30.15,East,90,7.3,7.3,72,0.00,CLR,,0.10,WeatherDisplay:10.37,2013-02-19 18:38:00,
2013-02-19 08:43:00,73.4,61.3,30.15,NE,45,6.7,13.8,66,0.00,CLR,,0.10,WeatherDisplay:10.37,2013-02-19 18:43:00,
2013-02-19 08:48:00,73.6,62.0,30.15,NE,45,7.8,10.4,67,0.00,CLR,,0.10,WeatherDisplay:10.37,2013-02-19 18:48:00,
2013-02-19 08:53:00,73.0,61.0,30.15,ESE,112,8.4,9.9,66,0.00,CLR,,0.10,WeatherDisplay:10.37,2013-02-19 18:53:00,
2013-02-19 08:58:00,73.4,63.4,30.14,NE,45,11.0,11.0,71,0.00,CLR,,0.10,WeatherDisplay:10.37,2013-02-19 18:58:00,
2013-02-19 09:04:00,73.4,62.2,30.14,East,90,9.0,10.4,68,0.00,CLR,,0.10,WeatherDisplay:10.37,2013-02-19 19:04:00,
2013-02-19 09:09:00,73.2,61.6,30.14,West,270,8.2,9.2,67,0.00,CLR,,0.10,WeatherDisplay:10.37,2013-02-19 19:09:00,
2013-02-19 09:14:00,73.2,61.6,30.15,ESE,112,9.4,10.4,67,0.00,CLR,,0.10,WeatherDisplay:10.37,2013-02-19 19:14:00,
2013-02-19 09:19:00,73.8,62.2,30.15,ENE,68,9.9,10.4,67,0.00,CLR,,0.10,WeatherDisplay:10.37,2013-02-19 19:19:00,
2013-02-19 09:24:00,74.5,61.5,30.15,East,90,7.5,10.4,64,0.00,CLR,,0.10,WeatherDisplay:10.37,2013-02-19 19:24:00,
2013-02-19 09:29:00,74.5,61.1,30.15,SSE,158,11.4,11.5,63,0.00,CLR,,0.10,WeatherDisplay:10.37,2013-02-19 19:29:00,
2013-02-19 09:34:00,74.5,61.1,30.15,SSE,158,11.4,11.5,63,0.00,CLR,,0.10,WeatherDisplay:10.37,2013-02-19 19:34:00,
2013-02-19 09:39:00,74.5,61.1,30.15,SSE,158,11.4,11.5,63,0.00,CLR,,0.10,WeatherDisplay:10.37,2013-02-19 19:39:00,
2013-02-19 09:44:00,74.5,61.1,30.15,SSE,158,11.4,11.5,63,0.00,CLR,,0.10,WeatherDisplay:10.37,2013-02-19 19:44:00,
2013-02-19 09:49:00,74.5,61.1,30.15,SSE,158,11.4,11.5,63,0.00,CLR,,0.10,WeatherDisplay:10.37,2013-02-19 19:49:00,
2013-02-19 09:54:00,74.8,63.5,30.15,ESE,112,9.0,11.5,68,0.00,CLR,,0.10,WeatherDisplay:10.37,2013-02-19 19:54:00,
2013-02-19 09:59:00,74.1,62.9,30.15,SSW,202,10.0,11.5,68,0.00,CLR,,0.10,WeatherDisplay:10.37,2013-02-19 19:59:00,
2013-02-19 10:04:00,73.0,62.2,30.15,SSW,202,10.2,11.5,69,0.00,CLR,,0.10,WeatherDisplay:10.37,2013-02-19 20:04:00,
2013-02-19 10:09:00,73.2,63.2,30.15,ENE,68,10.1,10.1,71,0.00,CLR,,0.10,WeatherDisplay:10.37,2013-02-19 20:09:00,
2013-02-19 10:15:00,72.3,62.4,30.15,ESE,112,8.9,17.3,71,0.00,CLR,,0.10,WeatherDisplay:10.37,2013-02-19 20:15:00,
2013-02-19 10:20:00,72.4,63.3,30.15,East,82,8.0,13.0,73,0.00,CLR,,0.10,WeatherDisplay:10.37,2013-02-19 20:20:00,
2013-02-19 10:25:00,72.5,63.3,30.15,ESE,103,9.0,13.0,73,0.00,CLR,,0.10,WeatherDisplay:10.37,2013-02-19 20:25:00,
2013-02-19 10:30:00,72.6,63.9,30.15,East,96,7.0,16.0,74,0.00,CLR,,0.10,WeatherDisplay:10.37,2013-02-19 20:30:00,
2013-02-19 10:35:00,73.2,63.6,30.15,East,86,7.0,13.0,72,0.00,CLR,,0.10,WeatherDisplay:10.37,2013-02-19 20:35:00,
2013-02-19 10:40:00,73.2,63.6,30.15,East,85,7.0,7.0,72,0.00,CLR,,0.10,WeatherDisplay:10.37,2013-02-19 20:40:00,
2013-02-19 10:45:00,72.5,63.0,30.15,East,89,8.0,11.0,72,0.00,CLR,,0.10,WeatherDisplay:10.37,2013-02-19 20:45:00,
2013-02-19 10:50:00,72.1,63.0,30.14,ENE,76,10.0,17.0,73,0.00,CLR,,0.10,WeatherDisplay:10.37,2013-02-19 20:50:00,
2013-02-19 10:55:00,72.9,63.7,30.14,East,82,8.0,15.0,73,0.00,CLR,,0.10,WeatherDisplay:10.37,2013-02-19 20:55:00,
2013-02-19 11:00:00,73.0,64.2,30.14,ENE,68,5.6,9.4,74,0.00,CLR,,0.10,WeatherDisplay:10.37,2013-02-19 21:00:00,
2013-02-19 11:05:00,72.5,64.1,30.14,NNW,338,7.1,9.2,75,0.00,CLR,,0.10,WeatherDisplay:10.37,2013-02-19 21:05:00,
2013-02-19 11:10:00,73.2,64.8,30.14,ESE,112,5.9,8.1,75,0.00,CLR,,0.10,WeatherDisplay:10.37,2013-02-19 21:10:00,
2013-02-19 11:15:00,71.1,63.9,30.13,NNW,338,12.4,17.3,78,0.00,CLR,,0.10,WeatherDisplay:10.37,2013-02-19 21:15:00,
2013-02-19 11:20:00,69.3,64.3,30.13,SE,135,4.7,10.4,84,0.00,CLR,,0.10,WeatherDisplay:10.37,2013-02-19 21:20:00,
2013-02-19 11:25:00,70.5,65.4,30.14,NE,45,4.9,8.3,84,0.00,CLR,,0.10,WeatherDisplay:10.37,2013-02-19 21:25:00,
2013-02-19 11:30:00,72.0,66.2,30.14,East,90,7.9,9.9,82,0.00,CLR,,0.10,WeatherDisplay:10.37,2013-02-19 21:30:00,
2013-02-19 11:35:00,72.1,65.2,30.12,ESE,112,9.6,10.4,79,0.00,CLR,,0.10,WeatherDisplay:10.37,2013-02-19 21:35:00,
2013-02-19 11:40:00,70.2,63.0,30.12,North,360,10.4,19.6,78,0.00,CLR,,0.10,WeatherDisplay:10.37,2013-02-19 21:40:00,
2013-02-19 11:45:00,69.8,64.1,30.12,ENE,68,4.4,9.2,82,0.00,CLR,,0.10,WeatherDisplay:10.37,2013-02-19 21:45:00,
2013-02-19 11:50:00,70.5,63.7,30.14,NE,45,5.8,12.7,79,0.00,CLR,,0.10,WeatherDisplay:10.37,2013-02-19 21:50:00,
2013-02-19 11:55:00,71.2,63.6,30.14,NNW,338,3.4,6.9,77,0.00,CLR,,0.10,WeatherDisplay:10.37,2013-02-19 21:55:00,
2013-02-19 12:01:00,72.0,64.8,30.12,ENE,68,6.3,8.1,78,0.00,CLR,,0.10,WeatherDisplay:10.37,2013-02-19 22:01:00,
2013-02-19 12:06:00,72.0,64.4,30.12,NNE,22,9.9,11.5,77,0.00,CLR,,0.10,WeatherDisplay:10.37,2013-02-19 22:06:00,
2013-02-19 12:11:00,72.9,65.6,30.12,East,90,8.3,10.4,78,0.00,CLR,,0.10,WeatherDisplay:10.37,2013-02-19 22:11:00,
2013-02-19 12:16:00,72.7,64.7,30.12,SE,135,7.2,9.2,76,0.00,CLR,,0.10,WeatherDisplay:10.37,2013-02-19 22:16:00,
2013-02-19 12:21:00,72.9,64.5,30.12,NE,45,5.5,8.1,75,0.00,CLR,,0.10,WeatherDisplay:10.37,2013-02-19 22:21:00,
2013-02-19 12:26:00,72.7,63.5,30.11,North,360,9.7,11.5,73,0.00,CLR,,0.10,WeatherDisplay:10.37,2013-02-19 22:26:00,
2013-02-19 12:31:00,74.3,64.3,30.11,West,270,8.2,10.4,71,0.00,CLR,,0.10,WeatherDisplay:10.37,2013-02-19 22:31:00,
2013-02-19 12:36:00,74.7,64.7,30.10,NW,315,6.3,8.1,71,0.00,CLR,,0.10,WeatherDisplay:10.37,2013-02-19 22:36:00,
2013-02-19 12:41:00,75.0,64.1,30.10,NW,315,9.6,13.8,69,0.00,CLR,,0.10,WeatherDisplay:10.37,2013-02-19 22:41:00,
2013-02-19 12:46:00,75.0,63.3,30.10,ENE,68,11.8,16.1,67,0.00,CLR,,0.10,WeatherDisplay:10.37,2013-02-19 22:46:00,
2013-02-19 12:51:00,75.2,63.9,30.09,ESE,112,9.4,10.4,68,0.00,CLR,,0.10,WeatherDisplay:10.37,2013-02-19 22:51:00,
2013-02-19 12:56:00,76.1,64.3,30.09,ENE,68,12.1,15.0,67,0.00,CLR,,0.10,WeatherDisplay:10.37,2013-02-19 22:56:00,
2013-02-19 13:01:00,75.4,64.1,30.09,SE,135,6.8,11.5,68,0.00,CLR,,0.10,WeatherDisplay:10.37,2013-02-19 23:01:00,
2013-02-19 13:06:00,77.2,65.0,30.09,ENE,68,13.2,16.1,66,0.00,CLR,,0.10,WeatherDisplay:10.37,2013-02-19 23:06:00,
2013-02-19 13:11:00,74.8,63.9,30.08,NNE,22,8.2,13.8,69,0.00,CLR,,0.10,WeatherDisplay:10.37,2013-02-19 23:11:00,
2013-02-19 13:16:00,74.5,64.1,30.08,ENE,68,12.5,13.8,70,0.00,CLR,,0.10,WeatherDisplay:10.37,2013-02-19 23:16:00,
2013-02-19 13:22:00,74.7,65.1,30.07,ENE,68,6.1,6.9,72,0.00,CLR,,0.10,WeatherDisplay:10.37,2013-02-19 23:22:00,
2013-02-19 13:27:00,75.0,64.5,30.07,ESE,112,13.2,17.3,70,0.00,CLR,,0.10,WeatherDisplay:10.37,2013-02-19 23:27:00,
2013-02-19 13:32:00,74.7,63.9,30.07,ESE,112,10.3,15.0,69,0.00,CLR,,0.10,WeatherDisplay:10.37,2013-02-19 23:32:00,
2013-02-19 13:37:00,74.3,64.3,30.07,East,90,6.9,9.2,71,0.00,CLR,,0.10,WeatherDisplay:10.37,2013-02-19 23:37:00,
2013-02-19 13:42:00,74.8,64.4,30.07,ENE,68,6.2,9.2,70,0.00,CLR,,0.10,WeatherDisplay:10.37,2013-02-19 23:42:00,
2013-02-19 13:47:00,74.3,64.7,30.06,East,90,7.6,12.4,72,0.00,CLR,,0.10,WeatherDisplay:10.37,2013-02-19 23:47:00,
2013-02-19 13:52:00,73.6,64.4,30.06,ENE,68,9.5,13.8,73,0.00,CLR,,0.10,WeatherDisplay:10.37,2013-02-19 23:52:00,
2013-02-19 13:57:00,73.4,64.2,30.06,NNE,22,14.7,17.3,73,0.00,CLR,,0.10,WeatherDisplay:10.37,2013-02-19 23:57:00,
2013-02-19 14:02:00,73.8,64.6,30.06,East,90,9.8,15.0,73,0.00,CLR,,0.10,WeatherDisplay:10.37,2013-02-20 00:02:00,
2013-02-19 14:07:00,74.3,65.1,30.06,ESE,112,12.7,14.0,73,0.00,CLR,,0.10,WeatherDisplay:10.37,2013-02-20 00:07:00,
2013-02-19 14:12:00,73.6,63.6,30.06,East,90,13.7,20.7,71,0.00,CLR,,0.10,WeatherDisplay:10.37,2013-02-20 00:12:00,
2013-02-19 14:17:00,74.1,64.5,30.06,NE,45,7.4,9.9,72,0.00,CLR,,0.10,WeatherDisplay:10.37,2013-02-20 00:17:00,
2013-02-19 14:22:00,74.3,64.7,30.06,East,90,11.9,13.0,72,0.00,CLR,,0.10,WeatherDisplay:10.37,2013-02-20 00:22:00,
2013-02-19 14:28:00,73.8,63.8,30.05,ENE,68,10.8,10.8,71,0.00,CLR,,0.10,WeatherDisplay:10.37,2013-02-20 00:28:00,
2013-02-19 14:47:00,73.8,63.4,30.05,ESE,112,9.4,13.8,70,0.00,CLR,,0.10,WeatherDisplay:10.37,2013-02-20 00:47:00,
2013-02-19 14:52:00,73.9,63.5,30.05,NNW,338,8.9,11.5,70,0.00,CLR,,0.10,WeatherDisplay:10.37,2013-02-20 00:52:00,
2013-02-19 14:57:00,73.9,63.5,30.05,SSE,158,8.9,16.0,70,0.00,CLR,,0.10,WeatherDisplay:10.37,2013-02-20 00:57:00,
2013-02-19 15:02:00,73.2,63.2,30.05,East,90,11.8,18.4,71,0.00,CLR,,0.10,WeatherDisplay:10.37,2013-02-20 01:02:00,
2013-02-19 15:07:00,73.2,63.6,30.05,North,360,9.6,10.4,72,0.00,CLR,,0.10,WeatherDisplay:10.37,2013-02-20 01:07:00,
2013-02-19 15:12:00,72.9,63.7,30.05,NNE,22,12.4,12.7,73,0.00,CLR,,0.10,WeatherDisplay:10.37,2013-02-20 01:12:00,
2013-02-19 15:17:00,72.9,63.7,30.05,NNE,22,12.4,12.7,73,0.00,CLR,,0.10,WeatherDisplay:10.37,2013-02-20 01:17:00,
2013-02-19 15:23:00,73.2,63.2,30.05,ENE,68,10.8,17.3,71,0.00,CLR,,0.10,WeatherDisplay:10.37,2013-02-20 01:23:00,
2013-02-19 15:28:00,73.9,64.3,30.05,SSE,158,11.0,13.8,72,0.00,CLR,,0.10,WeatherDisplay:10.37,2013-02-20 01:28:00,
2013-02-19 15:33:00,73.0,63.8,30.05,ENE,68,12.5,17.3,73,0.00,CLR,,0.10,WeatherDisplay:10.37,2013-02-20 01:33:00,
2013-02-19 15:38:00,72.9,63.7,30.04,NE,45,11.7,15.5,73,0.00,CLR,,0.10,WeatherDisplay:10.37,2013-02-20 01:38:00,
2013-02-19 15:43:00,72.9,63.7,30.04,East,90,8.1,11.5,73,0.00,CLR,,0.10,WeatherDisplay:10.37,2013-02-20 01:43:00,
2013-02-19 15:48:00,73.0,63.8,30.04,WNW,292,7.2,9.2,73,0.00,CLR,,0.10,WeatherDisplay:10.37,2013-02-20 01:48:00,
2013-02-19 15:53:00,73.0,63.8,30.04,East,90,8.5,13.8,73,0.00,CLR,,0.10,WeatherDisplay:10.37,2013-02-20 01:53:00,
2013-02-19 15:58:00,73.8,64.6,30.04,NNE,22,6.6,8.1,73,0.00,CLR,,0.10,WeatherDisplay:10.37,2013-02-20 01:58:00,
2013-02-19 16:03:00,73.4,64.2,30.04,ESE,112,9.2,10.4,73,0.00,CLR,,0.10,WeatherDisplay:10.37,2013-02-20 02:03:00,
2013-02-19 16:08:00,72.3,65.1,30.04,North,360,7.6,15.0,78,0.00,CLR,,0.10,WeatherDisplay:10.37,2013-02-20 02:08:00,
2013-02-19 16:13:00,70.7,64.9,30.05,NE,45,4.5,6.3,82,0.01,RA,,0.11,WeatherDisplay:10.37,2013-02-20 02:13:00,
2013-02-19 16:18:00,70.0,64.6,30.05,ESE,112,8.1,9.4,83,0.03,RA,,0.13,WeatherDisplay:10.37,2013-02-20 02:18:00,
2013-02-19 16:23:00,69.6,64.5,30.05,ESE,112,4.5,9.2,84,0.06,RA,,0.16,WeatherDisplay:10.37,2013-02-20 02:23:00,
2013-02-19 16:28:00,69.8,65.4,30.05,NNE,22,2.1,5.8,86,0.06,RA,,0.16,WeatherDisplay:10.37,2013-02-20 02:28:00,
2013-02-19 16:34:00,70.0,65.6,30.05,East,90,7.1,8.3,86,0.06,,,0.16,WeatherDisplay:10.37,2013-02-20 02:34:00,
2013-02-19 16:39:00,70.3,64.5,30.04,East,90,10.2,19.6,82,0.06,CLR,,0.16,WeatherDisplay:10.37,2013-02-20 02:39:00,
2013-02-19 16:44:00,70.7,64.9,30.04,ENE,68,8.0,11.5,82,0.06,CLR,,0.16,WeatherDisplay:10.37,2013-02-20 02:44:00,
2013-02-19 16:49:00,70.7,64.6,30.05,NNE,22,8.1,11.9,81,0.06,CLR,,0.16,WeatherDisplay:10.37,2013-02-20 02:49:00,
2013-02-19 16:54:00,70.7,64.2,30.05,ENE,68,9.8,11.5,80,0.06,CLR,,0.16,WeatherDisplay:10.37,2013-02-20 02:54:00,
2013-02-19 16:59:00,70.9,64.4,30.05,NNE,22,7.5,8.1,80,0.06,CLR,,0.16,WeatherDisplay:10.37,2013-02-20 02:59:00,
2013-02-19 17:04:00,70.9,64.4,30.05,SSE,158,4.4,6.9,80,0.06,CLR,,0.16,WeatherDisplay:10.37,2013-02-20 03:04:00,
2013-02-19 17:09:00,71.1,64.3,30.05,ESE,112,9.2,13.8,79,0.06,CLR,,0.16,WeatherDisplay:10.37,2013-02-20 03:09:00,
2013-02-19 17:14:00,71.1,64.3,30.05,NE,45,6.7,9.2,79,0.05,CLR,,0.16,WeatherDisplay:10.37,2013-02-20 03:14:00,
2013-02-19 17:19:00,71.1,64.3,30.05,South,180,7.8,10.4,79,0.03,CLR,,0.16,WeatherDisplay:10.37,2013-02-20 03:19:00,
2013-02-19 17:24:00,71.1,63.9,30.06,East,90,8.5,10.4,78,0.00,CLR,,0.16,WeatherDisplay:10.37,2013-02-20 03:24:00,
2013-02-19 17:29:00,71.2,64.0,30.06,North,360,6.1,10.4,78,0.00,CLR,,0.16,WeatherDisplay:10.37,2013-02-20 03:29:00,
2013-02-19 17:34:00,71.2,64.4,30.06,ENE,68,10.6,17.3,79,0.00,CLR,,0.16,WeatherDisplay:10.37,2013-02-20 03:34:00,
2013-02-19 17:39:00,71.2,64.4,30.06,NE,45,8.6,15.0,79,0.00,CLR,,0.16,WeatherDisplay:10.37,2013-02-20 03:39:00,
2013-02-19 17:45:00,71.2,64.0,30.06,NE,48,12.0,14.0,78,0.00,CLR,,0.16,WeatherDisplay:10.37,2013-02-20 03:45:00,
2013-02-19 17:50:00,71.2,64.0,30.06,NE,51,5.0,12.0,78,0.00,CLR,,0.16,WeatherDisplay:10.37,2013-02-20 03:50:00,
2013-02-19 17:55:00,71.2,64.4,30.06,North,351,7.0,12.0,79,0.00,CLR,,0.16,WeatherDisplay:10.37,2013-02-20 03:55:00,
2013-02-19 18:00:00,71.1,63.9,30.06,NNE,22,6.3,9.2,78,0.00,CLR,,0.16,WeatherDisplay:10.37,2013-02-20 04:00:00,
2013-02-19 18:05:00,71.1,63.9,30.06,NE,51,9.0,13.0,78,0.00,CLR,,0.16,WeatherDisplay:10.37,2013-02-20 04:05:00,
2013-02-19 18:10:00,71.1,63.1,30.06,SSW,202,8.5,9.2,76,0.00,CLR,,0.16,WeatherDisplay:10.37,2013-02-20 04:10:00,
2013-02-19 18:15:00,71.1,63.5,30.06,ESE,104,6.0,10.0,77,0.00,CLR,,0.16,WeatherDisplay:10.37,2013-02-20 04:15:00,
2013-02-19 18:20:00,71.1,63.9,30.06,ESE,112,8.0,11.5,78,0.00,CLR,,0.16,WeatherDisplay:10.37,2013-02-20 04:20:00,
2013-02-19 18:25:00,70.7,63.9,30.06,NE,45,5.0,8.3,79,0.00,CLR,,0.16,WeatherDisplay:10.37,2013-02-20 04:25:00,
2013-02-19 18:30:00,70.7,63.9,30.06,NE,45,10.6,12.7,79,0.00,CLR,,0.16,WeatherDisplay:10.37,2013-02-20 04:30:00,
2013-02-19 18:35:00,70.7,63.9,30.07,NW,315,11.4,11.5,79,0.00,CLR,,0.16,WeatherDisplay:10.37,2013-02-20 04:35:00,
2013-02-19 18:40:00,70.7,62.8,30.07,NE,45,9.1,11.5,76,0.00,CLR,,0.16,WeatherDisplay:10.37,2013-02-20 04:40:00,
2013-02-19 18:45:00,70.7,63.1,30.07,ESE,112,5.0,8.1,77,0.00,CLR,,0.16,WeatherDisplay:10.37,2013-02-20 04:45:00,
2013-02-19 18:50:00,70.7,63.5,30.07,ESE,112,8.5,15.0,78,0.00,CLR,,0.16,WeatherDisplay:10.37,2013-02-20 04:50:00,
2013-02-19 18:55:00,70.7,63.9,30.07,NE,45,8.9,10.9,79,0.00,CLR,,0.16,WeatherDisplay:10.37,2013-02-20 04:55:00,
2013-02-19 19:00:00,70.7,64.6,30.07,ESE,112,8.4,10.4,81,0.00,CLR,,0.16,WeatherDisplay:10.37,2013-02-20 05:00:00,
2013-02-19 19:05:00,70.5,64.7,30.07,NE,45,10.6,11.9,82,0.00,CLR,,0.16,WeatherDisplay:10.37,2013-02-20 05:05:00,
2013-02-19 19:10:00,70.5,64.0,30.08,East,90,10.4,12.7,80,0.00,CLR,,0.16,WeatherDisplay:10.37,2013-02-20 05:10:00,
2013-02-19 19:15:00,70.5,63.7,30.08,ENE,68,7.8,13.8,79,0.00,CLR,,0.16,WeatherDisplay:10.37,2013-02-20 05:15:00,
2013-02-19 19:21:00,70.7,63.9,30.08,ESE,112,14.0,14.0,79,0.00,CLR,,0.16,WeatherDisplay:10.37,2013-02-20 05:21:00,
2013-02-19 19:26:00,70.7,64.2,30.08,NW,315,6.9,6.9,80,0.00,CLR,,0.16,WeatherDisplay:10.37,2013-02-20 05:26:00,
2013-02-19 19:31:00,70.5,64.4,30.08,East,90,11.5,13.8,81,0.00,CLR,,0.16,WeatherDisplay:10.37,2013-02-20 05:31:00,
2013-02-19 19:36:00,70.5,64.4,30.08,West,270,4.8,7.8,81,0.00,CLR,,0.16,WeatherDisplay:10.37,2013-02-20 05:36:00,
2013-02-19 19:41:00,70.3,64.2,30.08,SE,135,10.5,13.8,81,0.00,CLR,,0.16,WeatherDisplay:10.37,2013-02-20 05:41:00,
2013-02-19 19:46:00,70.5,64.4,30.09,NE,45,7.6,8.1,81,0.00,CLR,,0.16,WeatherDisplay:10.37,2013-02-20 05:46:00,
2013-02-19 19:51:00,70.5,64.0,30.09,ESE,112,9.3,11.9,80,0.00,CLR,,0.16,WeatherDisplay:10.37,2013-02-20 05:51:00,
2013-02-19 19:56:00,70.5,64.0,30.09,ESE,112,4.8,6.9,80,0.00,CLR,,0.16,WeatherDisplay:10.37,2013-02-20 05:56:00,
2013-02-19 20:01:00,70.5,64.0,30.09,ENE,68,7.8,8.1,80,0.00,CLR,,0.16,WeatherDisplay:10.37,2013-02-20 06:01:00,
2013-02-19 20:06:00,70.5,64.0,30.09,SSE,158,4.6,9.2,80,0.00,CLR,,0.16,WeatherDisplay:10.37,2013-02-20 06:06:00,
2013-02-19 20:11:00,70.3,63.8,30.10,ENE,68,4.9,10.9,80,0.00,CLR,,0.16,WeatherDisplay:10.37,2013-02-20 06:11:00,
2013-02-19 20:16:00,70.3,63.8,30.10,SE,135,8.3,8.3,80,0.00,CLR,,0.16,WeatherDisplay:10.37,2013-02-20 06:16:00,
2013-02-19 20:21:00,70.3,63.8,30.10,ESE,112,8.5,9.9,80,0.00,CLR,,0.16,WeatherDisplay:10.37,2013-02-20 06:21:00,
2013-02-19 20:26:00,70.3,64.2,30.10,NNW,338,7.0,12.7,81,0.00,CLR,,0.16,WeatherDisplay:10.37,2013-02-20 06:26:00,
2013-02-19 20:32:00,70.3,64.2,30.10,ESE,112,5.3,6.9,81,0.00,CLR,,0.16,WeatherDisplay:10.37,2013-02-20 06:32:00,
2013-02-19 20:37:00,70.3,64.2,30.11,NE,45,6.8,10.4,81,0.00,CLR,,0.16,WeatherDisplay:10.37,2013-02-20 06:37:00,
2013-02-19 20:42:00,70.5,64.4,30.11,ESE,112,7.7,9.2,81,0.00,CLR,,0.16,WeatherDisplay:10.37,2013-02-20 06:42:00,
2013-02-19 20:47:00,70.5,64.4,30.10,East,90,6.3,10.4,81,0.00,CLR,,0.16,WeatherDisplay:10.37,2013-02-20 06:47:00,
2013-02-19 20:52:00,70.5,64.7,30.10,East,90,6.5,9.9,82,0.00,CLR,,0.16,WeatherDisplay:10.37,2013-02-20 06:52:00,
2013-02-19 20:57:00,70.5,64.7,30.10,NE,45,5.3,8.1,82,0.00,CLR,,0.16,WeatherDisplay:10.37,2013-02-20 06:57:00,
2013-02-19 21:02:00,70.5,64.4,30.11,West,270,7.2,9.2,81,0.00,CLR,,0.16,WeatherDisplay:10.37,2013-02-20 07:02:00,
2013-02-19 21:07:00,70.7,64.2,30.11,NE,45,4.8,12.7,80,0.00,CLR,,0.16,WeatherDisplay:10.37,2013-02-20 07:07:00,
2013-02-19 21:12:00,70.7,64.2,30.11,ESE,112,8.3,8.3,80,0.00,CLR,,0.16,WeatherDisplay:10.37,2013-02-20 07:12:00,
2013-02-19 21:17:00,70.7,64.2,30.11,ESE,112,8.3,8.3,80,0.00,CLR,,0.16,WeatherDisplay:10.37,2013-02-20 07:17:00,
2013-02-19 21:22:00,70.5,64.0,30.11,NNW,338,3.4,8.1,80,0.00,CLR,,0.16,WeatherDisplay:10.37,2013-02-20 07:22:00,
2013-02-19 21:27:00,70.5,64.4,30.11,West,270,5.8,6.9,81,0.00,CLR,,0.16,WeatherDisplay:10.37,2013-02-20 07:27:00,
2013-02-19 21:32:00,70.7,64.9,30.11,NNE,22,7.8,11.5,82,0.00,CLR,,0.16,WeatherDisplay:10.37,2013-02-20 07:32:00,
2013-02-19 21:38:00,70.5,64.7,30.12,East,90,7.3,9.2,82,0.00,CLR,,0.16,WeatherDisplay:10.37,2013-02-20 07:38:00,
2013-02-19 21:43:00,70.5,64.7,30.12,North,360,8.5,10.4,82,0.00,CLR,,0.16,WeatherDisplay:10.37,2013-02-20 07:43:00,
2013-02-19 21:48:00,70.5,64.7,30.12,ENE,68,3.5,4.6,82,0.00,CLR,,0.16,WeatherDisplay:10.37,2013-02-20 07:48:00,
2013-02-19 21:53:00,70.5,64.7,30.12,East,90,6.2,9.2,82,0.00,CLR,,0.16,WeatherDisplay:10.37,2013-02-20 07:53:00,
2013-02-19 21:58:00,70.5,64.7,30.12,SE,135,4.9,5.8,82,0.00,CLR,,0.16,WeatherDisplay:10.37,2013-02-20 07:58:00,
2013-02-19 22:05:00,70.5,64.7,30.12,East,94,3.0,10.0,82,0.00,CLR,,0.16,WeatherDisplay:10.37,2013-02-20 08:05:00,
2013-02-19 22:10:00,70.5,64.7,30.12,ENE,68,6.3,8.1,82,0.00,CLR,,0.16,WeatherDisplay:10.37,2013-02-20 08:10:00,
2013-02-19 22:15:00,70.7,64.9,30.11,NNW,338,3.9,7.3,82,0.00,CLR,,0.16,WeatherDisplay:10.37,2013-02-20 08:15:00,
2013-02-19 22:20:00,70.3,64.5,30.11,ESE,112,5.0,6.9,82,0.00,CLR,,0.16,WeatherDisplay:10.37,2013-02-20 08:20:00,
2013-02-19 22:25:00,70.2,64.1,30.12,East,90,6.8,8.1,81,0.00,CLR,,0.16,WeatherDisplay:10.37,2013-02-20 08:25:00,
2013-02-19 22:30:00,70.0,64.2,30.12,WSW,248,2.6,5.8,82,0.00,CLR,,0.16,WeatherDisplay:10.37,2013-02-20 08:30:00,
2013-02-19 22:35:00,70.2,64.8,30.11,ESE,112,2.8,3.5,83,0.00,CLR,,0.16,WeatherDisplay:10.37,2013-02-20 08:35:00,
2013-02-19 22:40:00,70.2,64.4,30.11,ENE,68,8.0,10.4,82,0.00,CLR,,0.16,WeatherDisplay:10.37,2013-02-20 08:40:00,
2013-02-19 22:45:00,70.0,64.6,30.11,ESE,112,8.2,11.5,83,0.00,CLR,,0.16,WeatherDisplay:10.37,2013-02-20 08:45:00,
2013-02-19 22:50:00,69.1,64.1,30.12,NNE,22,2.7,8.1,84,0.01,RA,,0.17,WeatherDisplay:10.37,2013-02-20 08:50:00,
2013-02-19 22:55:00,68.7,64.0,30.12,SSW,202,4.4,5.8,85,0.01,RA,,0.17,WeatherDisplay:10.37,2013-02-20 08:55:00,
2013-02-19 23:00:00,68.5,64.1,30.11,West,270,3.3,4.7,86,0.01,,,0.17,WeatherDisplay:10.37,2013-02-20 09:00:00,
2013-02-19 23:05:00,68.5,64.5,30.11,NE,45,4.4,7.8,87,0.01,CLR,,0.17,WeatherDisplay:10.37,2013-02-20 09:05:00,
2013-02-19 23:10:00,68.2,64.2,30.12,SW,225,5.8,10.4,87,0.01,CLR,,0.17,WeatherDisplay:10.37,2013-02-20 09:10:00,
2013-02-19 23:15:00,68.0,64.0,30.12,SSE,158,3.0,6.9,87,0.01,CLR,,0.17,WeatherDisplay:10.37,2013-02-20 09:15:00,
2013-02-19 23:21:00,67.8,63.8,30.12,SW,225,4.2,4.7,87,0.01,CLR,,0.17,WeatherDisplay:10.37,2013-02-20 09:21:00,
2013-02-19 23:26:00,67.8,64.1,30.11,SSW,202,2.1,3.5,88,0.01,CLR,,0.17,WeatherDisplay:10.37,2013-02-20 09:26:00,
2013-02-19 23:31:00,68.0,64.3,30.11,NE,45,2.0,4.7,88,0.01,CLR,,0.17,WeatherDisplay:10.37,2013-02-20 09:31:00,
2013-02-19 23:36:00,68.2,64.8,30.11,NW,315,0.0,1.1,89,0.01,CLR,,0.17,WeatherDisplay:10.37,2013-02-20 09:36:00,
2013-02-19 23:41:00,68.2,64.8,30.11,SSE,158,1.2,2.3,89,0.01,CLR,,0.17,WeatherDisplay:10.37,2013-02-20 09:41:00,
2013-02-19 23:46:00,68.5,65.1,30.11,ESE,112,4.6,10.4,89,0.01,CLR,,0.17,WeatherDisplay:10.37,2013-02-20 09:46:00,
2013-02-19 23:51:00,68.7,65.6,30.11,SSE,158,6.5,8.1,90,0.01,RA,,0.18,WeatherDisplay:10.37,2013-02-20 09:51:00,
2013-02-19 23:56:00,68.9,65.5,30.11,ENE,68,3.9,5.8,89,0.01,RA,,0.18,WeatherDisplay:10.37,2013-02-20 09:56:00,